Terminal Aerodrome Forecast
Issued by NWS Paducah, KY

Home | Current Version | Previous Version | Text Only | Print | Product List | Glossary On
Versions: 1 2 3 4 5 6 7 8 9 10 11 12 13 14 15 16 17 18 19 20 21 22 23
000
FTUS43 KPAH 251411 AAA
TAFEVV
TAF AMD
KEVV 251411Z 2514/2612 18010KT P6SM VCSH OVC014
     FM251600 19012KT P6SM VCSH SCT015 BKN040
     FM252200 17009KT P6SM SCT008 BKN025
     FM260900 18005KT 6SM -SHRA BR BKN008=

USA.gov is the U.S. government's official web portal to all federal, state and local government web resources and services.